Time,TemperatureF,DewpointF,PressureIn,WindDirection,WindDirectionDegrees,WindSpeedMPH,WindSpeedGustMPH,Humidity,HourlyPrecipIn,Conditions,Clouds,dailyrainin,SoftwareType,DateUTC
2013-03-26 00:59:00,28.9,25.2,30.02,SSE,153,1.0,9.0,86,0.00,-SN,,0.00,WeatherDisplay:10.37,2013-03-26 04:59:00,
2013-03-26 01:59:00,28.8,25.4,30.01,SSE,166,2.0,8.0,87,0.00,-SN,,0.00,WeatherDisplay:10.37,2013-03-26 05:59:00,
2013-03-26 03:00:00,28.5,25.4,30.02,South,177,0.0,7.0,88,0.00,-SN,,0.00,WeatherDisplay:10.37,2013-03-26 07:00:00,
2013-03-26 03:59:00,28.5,26.0,30.02,SSE,158,0.0,3.0,90,0.00,-SN,,0.00,WeatherDisplay:10.37,2013-03-26 07:59:00,
2013-03-26 04:59:00,28.3,26.0,30.00,SSE,158,0.0,2.0,91,0.00,-SN,,0.00,WeatherDisplay:10.37,2013-03-26 08:59:00,
2013-03-26 05:59:00,27.9,25.3,30.01,SSE,158,0.0,3.0,90,0.00,-SN,,0.00,WeatherDisplay:10.37,2013-03-26 09:59:00,
2013-03-26 06:59:00,28.0,25.7,30.02,SSW,204,0.0,5.0,91,0.00,-SN,,0.00,WeatherDisplay:10.37,2013-03-26 10:59:00,
2013-03-26 07:59:00,28.2,26.4,30.04,South,181,0.0,5.0,93,0.00,OVC,,0.00,WeatherDisplay:10.37,2013-03-26 11:59:00,
2013-03-26 08:59:00,29.1,26.8,30.06,North,7,0.0,4.0,91,0.00,-SN,,0.00,WeatherDisplay:10.37,2013-03-26 12:59:00,
2013-03-26 09:59:00,29.6,27.3,30.09,North,1,0.0,0.0,91,0.00,-SN,,0.00,WeatherDisplay:10.37,2013-03-26 13:59:00,
2013-03-26 10:59:00,30.3,28.0,30.10,North,2,0.0,0.0,91,0.00,-SN,,0.00,WeatherDisplay:10.37,2013-03-26 14:59:00,
2013-03-26 11:59:00,32.8,30.4,30.12,North,2,0.0,0.0,91,0.00,OVC,,0.00,WeatherDisplay:10.37,2013-03-26 15:59:00,
2013-03-26 13:00:00,33.4,31.0,30.13,North,2,0.0,0.0,91,0.00,-SN,,0.00,WeatherDisplay:10.37,2013-03-26 17:00:00,
2013-03-26 13:59:00,33.9,31.5,30.13,North,3,0.0,0.0,91,0.00,OVC,,0.00,WeatherDisplay:10.37,2013-03-26 17:59:00,
2013-03-26 14:59:00,34.9,32.6,30.14,North,1,0.0,0.0,91,0.00,OVC,,0.00,WeatherDisplay:10.37,2013-03-26 18:59:00,
2013-03-26 15:59:00,36.0,33.6,30.14,North,2,0.0,0.0,91,0.00,OVC,,0.00,WeatherDisplay:10.37,2013-03-26 19:59:00,
2013-03-26 17:00:00,36.4,34.0,30.15,North,2,0.0,0.0,91,0.00,OVC,,0.00,WeatherDisplay:10.37,2013-03-26 21:00:00,
2013-03-26 17:59:00,36.1,33.8,30.17,North,4,0.0,0.0,91,0.00,OVC,,0.00,WeatherDisplay:10.37,2013-03-26 21:59:00,
2013-03-26 18:59:00,35.4,33.0,30.19,North,3,0.0,0.0,91,0.00,OVC,,0.00,WeatherDisplay:10.37,2013-03-26 22:59:00,
2013-03-26 19:59:00,34.9,32.5,30.21,North,1,0.0,0.0,91,0.00,OVC,,0.00,WeatherDisplay:10.37,2013-03-26 23:59:00,
2013-03-26 20:59:00,34.4,32.0,30.23,North,3,0.0,0.0,91,0.00,OVC,,0.00,WeatherDisplay:10.37,2013-03-27 00:59:00,
2013-03-26 21:59:00,33.2,30.9,30.25,North,1,0.0,0.0,91,0.00,OVC,,0.00,WeatherDisplay:10.37,2013-03-27 01:59:00,
2013-03-26 22:59:00,32.6,30.2,30.26,North,1,0.0,0.0,91,0.00,OVC,,0.00,WeatherDisplay:10.37,2013-03-27 02:59:00,
2013-03-26 23:59:00,32.7,30.4,30.26,North,3,0.0,0.0,91,0.00,OVC,,0.00,WeatherDisplay:10.37,2013-03-27 03:59:00,